Time;durP1;ratioP1;P1;durP2;ratioP2;P2;SDS_P1;SDS_P2;PMS_P1;PMS_P2;Temp;Humidity;BMP_temperature;BMP_pressure;BME280_temperature;BME280_humidity;BME280_pressure;Samples;Min_cycle;Max_cycle;Signal;HPM_P1;HPM_P2
2021/08/10 00:02:11;;;;;;;21.70;13.00;;;;;;;18.00;87.45;97491.27;127007;1095;62607;-80
2021/08/10 00:04:38;;;;;;;13.20;11.63;;;;;;;18.01;87.54;97495.61;127053;1095;62620;-83
2021/08/10 00:07:05;;;;;;;14.67;11.90;;;;;;;17.99;87.36;97489.73;127071;1095;62687;-85
2021/08/10 00:09:33;;;;;;;14.90;12.60;;;;;;;17.98;87.48;97493.02;127116;1095;62616;-82
2021/08/10 00:12:08;;;;;;;17.70;12.67;;;;;;;18.01;87.48;97487.20;127121;1095;62596;-81
2021/08/10 00:14:36;;;;;;;14.53;12.10;;;;;;;18.00;87.49;97491.27;127037;1095;62679;-81
2021/08/10 00:17:03;;;;;;;15.33;12.17;;;;;;;17.98;87.53;97490.98;126968;1093;62757;-81
2021/08/10 00:19:30;;;;;;;15.30;12.73;;;;;;;17.99;87.44;97491.75;127133;1094;62740;-79
2021/08/10 00:21:57;;;;;;;16.60;12.07;;;;;;;17.97;87.23;97486.64;126928;1095;62625;-79
2021/08/10 00:24:24;;;;;;;16.30;11.60;;;;;;;17.96;86.91;97485.11;126980;1095;62610;-75
2021/08/10 00:27:00;;;;;;;13.37;11.93;;;;;;;17.92;86.99;97497.75;127112;1095;62578;-81
2021/08/10 00:29:28;;;;;;;16.43;12.37;;;;;;;17.91;86.89;97493.41;126918;1095;62703;-83
2021/08/10 00:31:55;;;;;;;14.13;11.47;;;;;;;17.88;86.59;97488.80;127017;1095;62747;-81
2021/08/10 00:34:22;;;;;;;13.45;11.60;;;;;;;17.85;86.68;97489.77;127086;1095;62607;-81
2021/08/10 00:36:49;;;;;;;16.27;11.03;;;;;;;17.81;86.49;97495.58;127108;1095;62617;-80
2021/08/10 00:39:16;;;;;;;12.90;11.55;;;;;;;17.75;86.44;97495.48;127004;1093;62575;-88
2021/08/10 00:41:43;;;;;;;16.50;12.70;;;;;;;17.72;86.50;97504.86;126973;1095;62706;-81
2021/08/10 00:44:33;;;;;;;18.97;11.57;;;;;;;17.71;86.52;97492.13;127062;1093;62709;-78
2021/08/10 00:47:00;;;;;;;12.63;10.37;;;;;;;17.67;86.50;97491.53;126959;1093;62694;-81
2021/08/10 00:49:27;;;;;;;14.60;12.07;;;;;;;17.63;86.25;97499.37;126968;1095;62635;-83
2021/08/10 00:51:54;;;;;;;19.57;12.47;;;;;;;17.61;86.46;97492.72;126916;1095;62613;-80
2021/08/10 00:54:21;;;;;;;15.27;10.87;;;;;;;17.59;86.20;97493.17;126894;1093;62687;-82
2021/08/10 00:56:48;;;;;;;12.03;10.83;;;;;;;17.57;86.38;97498.48;126967;1095;62767;-80
2021/08/10 00:59:15;;;;;;;17.87;11.33;;;;;;;17.55;86.23;97494.64;127070;1095;62681;-81
2021/08/10 01:01:43;;;;;;;13.37;11.97;;;;;;;17.53;86.47;97492.33;127029;1095;62571;-81
2021/08/10 01:04:10;;;;;;;18.87;11.63;;;;;;;17.52;86.37;97493.59;127039;1093;62610;-82
2021/08/10 01:07:05;;;;;;;14.97;11.10;;;;;;;17.52;86.23;97496.38;127117;1093;62661;-84
2021/08/10 01:09:45;;;;;;;12.93;11.23;;;;;;;17.49;86.09;97486.16;127101;1093;62767;-81
2021/08/10 01:12:20;;;;;;;14.48;11.43;;;;;;;17.48;85.92;97496.59;127062;1093;62607;-80
2021/08/10 01:15:04;;;;;;;13.00;11.13;;;;;;;17.47;85.93;97494.28;127083;1095;62684;-80
2021/08/10 01:18:00;;;;;;;16.53;10.63;;;;;;;17.44;85.84;97493.22;127070;1093;62610;-84
2021/08/10 01:21:05;;;;;;;14.40;10.83;;;;;;;17.44;85.77;97492.45;127004;1095;63021;-81
2021/08/10 01:23:40;;;;;;;13.13;10.67;;;;;;;17.39;85.74;97499.48;126978;1095;62584;-76
2021/08/10 01:26:23;;;;;;;13.87;10.37;;;;;;;17.37;85.49;97496.40;127095;1093;62600;-76
2021/08/10 01:28:55;;;;;;;13.23;9.97;;;;;;;17.37;85.46;97495.63;126956;1093;62626;-83
2021/08/10 01:31:26;;;;;;;13.40;10.00;;;;;;;17.35;85.36;97492.55;127018;1095;62559;-82
2021/08/10 01:33:59;;;;;;;16.03;10.47;;;;;;;17.33;85.37;97495.83;127108;1095;62722;-78
2021/08/10 01:36:26;;;;;;;13.73;10.10;;;;;;;17.32;85.38;97501.91;127105;1095;62838;-81
2021/08/10 01:38:56;;;;;;;11.60;10.40;;;;;;;17.30;85.34;97496.03;127085;1095;63060;-80
2021/08/10 01:41:23;;;;;;;12.53;10.80;;;;;;;17.30;85.23;97496.03;127054;1095;62575;-83
2021/08/10 01:43:50;;;;;;;16.83;11.73;;;;;;;17.28;85.22;97492.95;126941;1095;63054;-85
2021/08/10 01:46:17;;;;;;;13.33;10.33;;;;;;;17.29;85.28;97494.49;126802;1095;62665;-79
2021/08/10 01:48:44;;;;;;;13.17;11.13;;;;;;;17.28;85.39;97492.95;126768;1095;62597;-75
2021/08/10 01:51:52;;;;;;;14.97;11.90;;;;;;;17.26;85.51;97490.64;126899;1095;62653;-83
2021/08/10 01:54:40;;;;;;;17.17;11.23;;;;;;;17.27;85.38;97486.59;127045;1095;62610;-76
2021/08/10 01:57:09;;;;;;;12.23;10.87;;;;;;;17.28;85.29;97490.16;127022;1095;62626;-81
2021/08/10 01:59:37;;;;;;;14.70;10.87;;;;;;;17.27;85.37;97485.81;126972;1095;62623;-81
2021/08/10 02:02:06;;;;;;;13.20;9.63;;;;;;;17.26;85.41;97484.27;126930;1095;62738;-81
2021/08/10 02:04:33;;;;;;;13.90;11.23;;;;;;;17.24;85.21;97476.36;126936;1095;62562;-81
2021/08/10 02:07:01;;;;;;;13.47;9.80;;;;;;;17.26;85.14;97478.67;126543;1095;62606;-81
2021/08/10 02:09:28;;;;;;;14.63;10.80;;;;;;;17.24;84.94;97478.39;127027;1095;62617;-80
2021/08/10 02:11:55;;;;;;;13.67;11.27;;;;;;;17.25;84.77;97482.73;127064;1095;62722;-79
2021/08/10 02:14:24;;;;;;;15.47;11.13;;;;;;;17.25;84.78;97482.73;126544;1095;62752;-70
2021/08/10 02:16:52;;;;;;;15.13;10.60;;;;;;;17.25;84.67;97485.53;126956;1093;62636;-80
2021/08/10 02:19:19;;;;;;;15.83;10.50;;;;;;;17.24;84.58;97481.19;127026;1093;62611;-80
2021/08/10 02:21:52;;;;;;;14.17;10.63;;;;;;;17.24;84.47;97481.19;126913;1093;62607;-70
2021/08/10 02:24:26;;;;;;;12.43;10.07;;;;;;;17.21;84.55;97482.91;127012;1095;62690;-86
2021/08/10 02:27:20;;;;;;;11.77;10.50;;;;;;;17.19;84.44;97486.19;126966;1093;62783;-80
2021/08/10 02:29:55;;;;;;;14.17;10.67;;;;;;;17.16;84.37;97486.39;126976;1094;62622;-85
2021/08/10 02:32:23;;;;;;;13.40;10.20;;;;;;;17.15;84.43;97490.44;126954;1095;62984;-84
2021/08/10 02:34:50;;;;;;;13.87;10.90;;;;;;;17.13;84.46;97482.53;127098;1095;62677;-82
2021/08/10 02:37:18;;;;;;;10.13;9.07;;;;;;;17.13;84.39;97488.13;126999;1093;62607;-82
2021/08/10 02:39:46;;;;;;;12.10;9.53;;;;;;;17.10;84.48;97489.10;127117;1093;62559;-82
2021/08/10 02:42:13;;;;;;;13.20;10.00;;;;;;;17.08;84.27;97480.42;127043;1093;62623;-81
2021/08/10 02:44:58;;;;;;;13.53;10.03;;;;;;;17.04;84.36;97485.42;126961;1095;62559;-81
2021/08/10 02:47:25;;;;;;;14.40;9.53;;;;;;;17.04;84.41;97487.45;127021;1095;62607;-85
2021/08/10 02:49:52;;;;;;;11.87;10.50;;;;;;;16.99;84.43;97491.70;127115;1095;62777;-73
2021/08/10 02:52:19;;;;;;;12.60;10.15;;;;;;;16.97;84.27;97496.23;127074;1093;62555;-77
2021/08/10 02:54:46;;;;;;;13.47;9.30;;;;;;;16.96;84.45;97497.48;126904;1095;62895;-80
2021/08/10 02:57:26;;;;;;;12.00;9.80;;;;;;;16.94;84.45;97495.17;127051;1095;62606;-82
2021/08/10 03:00:14;;;;;;;;;;;;;;;16.86;84.57;97485.61;127070;1095;62673;-84
2021/08/10 03:03:39;;;;;;;10.70;9.40;;;;;;;16.85;84.38;97495.25;127071;1095;63006;-76
2021/08/10 03:06:21;;;;;;;12.53;8.57;;;;;;;16.82;84.59;97501.81;126961;1093;62793;-89
2021/08/10 03:08:54;;;;;;;10.87;9.50;;;;;;;16.80;84.40;97498.73;127114;1095;62572;-71
2021/08/10 03:11:21;;;;;;;11.47;9.53;;;;;;;16.75;84.32;97491.02;127079;1095;62626;-73
2021/08/10 03:13:48;;;;;;;18.17;10.30;;;;;;;16.72;84.44;97500.37;126948;1095;62579;-70
2021/08/10 03:16:15;;;;;;;11.47;9.03;;;;;;;16.70;84.54;97502.88;127018;1095;62683;-82
2021/08/10 03:19:22;;;;;;;10.57;9.47;;;;;;;16.69;84.57;97498.50;126762;1095;62815;-73
2021/08/10 03:21:50;;;;;;;11.43;8.97;;;;;;;16.69;84.45;97504.09;127066;1095;62617;-86
2021/08/10 03:24:17;;;;;;;15.10;9.00;;;;;;;16.64;84.36;97502.72;126757;1095;62626;-86
2021/08/10 03:26:44;;;;;;;14.17;10.53;;;;;;;16.62;84.30;97506.00;127071;1095;62721;-80
2021/08/10 03:29:11;;;;;;;11.17;9.80;;;;;;;16.60;84.56;97508.50;127033;1095;62683;-75
2021/08/10 03:31:38;;;;;;;11.77;8.33;;;;;;;16.60;84.45;97502.14;126970;1095;62716;-80
2021/08/10 03:34:05;;;;;;;13.23;9.60;;;;;;;16.59;84.61;97500.59;127134;1095;62595;-77
2021/08/10 03:36:53;;;;;;;11.03;9.37;;;;;;;16.60;84.45;97504.94;126895;1094;62722;-71
2021/08/10 03:39:20;;;;;;;14.77;9.80;;;;;;;16.59;84.63;97514.58;127110;1095;62614;-82
2021/08/10 03:41:47;;;;;;;12.45;9.70;;;;;;;16.59;84.69;97512.55;127045;1093;62696;-71
2021/08/10 03:44:15;;;;;;;10.93;8.90;;;;;;;16.61;84.86;97515.64;126991;1093;62713;-83
2021/08/10 03:46:43;;;;;;;15.87;10.67;;;;;;;16.62;84.86;97513.61;126666;1094;62651;-77
2021/08/10 03:49:10;;;;;;;10.87;9.63;;;;;;;16.63;84.65;97527.11;127048;1095;62648;-81
2021/08/10 03:51:37;;;;;;;12.80;9.63;;;;;;;16.65;84.67;97525.86;127063;1095;62564;-73
2021/08/10 03:54:04;;;;;;;12.37;10.40;;;;;;;16.64;84.61;97525.09;127048;1095;62692;-69
2021/08/10 03:56:32;;;;;;;12.63;10.07;;;;;;;16.66;84.69;97528.17;127068;1095;62720;-73
2021/08/10 03:58:58;;;;;;;13.53;10.20;;;;;;;16.67;84.52;97534.56;126755;1095;62608;-86
2021/08/10 04:01:25;;;;;;;15.33;8.60;;;;;;;16.67;84.46;97534.56;127054;1095;62673;-71
2021/08/10 04:03:55;;;;;;;12.43;9.73;;;;;;;16.65;84.46;97542.63;126699;1095;62629;-80
2021/08/10 04:06:22;;;;;;;13.60;9.23;;;;;;;16.65;84.30;97537.81;126943;1093;62629;-70
2021/08/10 04:08:57;;;;;;;12.87;9.70;;;;;;;16.65;84.32;97542.63;126719;1095;62754;-79
2021/08/10 04:11:45;;;;;;;15.77;9.60;;;;;;;16.66;84.46;97539.35;127095;1095;62619;-83
2021/08/10 04:14:38;;;;;;;12.10;9.80;;;;;;;16.67;84.36;97542.95;126959;1095;62607;-85
2021/08/10 04:17:06;;;;;;;11.70;9.07;;;;;;;16.69;84.22;97543.23;127028;1093;62611;-86
2021/08/10 04:19:35;;;;;;;13.03;10.10;;;;;;;16.71;84.28;97535.17;126947;1093;62578;-75
2021/08/10 04:22:03;;;;;;;15.37;9.97;;;;;;;16.75;84.08;97541.34;126996;1095;62569;-85
2021/08/10 04:24:30;;;;;;;12.47;9.07;;;;;;;16.75;83.98;97535.75;127021;1095;62556;-76
2021/08/10 04:26:58;;;;;;;12.43;9.50;;;;;;;16.79;84.08;97534.30;127043;1093;62853;-76
2021/08/10 04:29:25;;;;;;;13.77;9.17;;;;;;;16.82;83.92;97538.94;126958;1095;62607;-81
2021/08/10 04:31:52;;;;;;;15.55;10.70;;;;;;;16.86;83.91;97538.74;127025;1095;62665;-68
2021/08/10 04:34:19;;;;;;;14.10;9.40;;;;;;;16.88;83.96;97539.06;127089;1095;62575;-86
2021/08/10 04:36:46;;;;;;;14.45;10.25;;;;;;;16.91;83.74;97543.69;127165;1095;62675;-70
2021/08/10 04:39:13;;;;;;;17.05;11.65;;;;;;;16.96;84.03;97540.22;127062;1095;62639;-81
2021/08/10 04:41:40;;;;;;;19.93;11.40;;;;;;;17.02;83.75;97543.11;126990;1095;62562;-72
2021/08/10 04:44:22;;;;;;;12.60;9.47;;;;;;;17.08;83.49;97547.56;127070;1095;62625;-68
2021/08/10 04:46:49;;;;;;;17.33;10.53;;;;;;;17.11;83.32;97541.00;127042;1095;62945;-74
2021/08/10 04:49:17;;;;;;;16.23;9.47;;;;;;;17.16;83.31;97540.32;126786;1095;62627;-69
2021/08/10 04:51:43;;;;;;;11.43;9.30;;;;;;;17.22;82.98;97534.81;127015;1093;62564;-68
2021/08/10 04:54:10;;;;;;;14.90;10.00;;;;;;;17.26;83.25;97541.02;126994;1093;62607;-66
2021/08/10 04:56:37;;;;;;;12.97;9.70;;;;;;;17.33;83.06;97542.64;127004;1095;62562;-70
2021/08/10 04:59:04;;;;;;;12.73;9.20;;;;;;;17.39;82.66;97537.90;127020;1095;62681;-77
2021/08/10 05:01:51;;;;;;;11.80;9.70;;;;;;;17.39;82.28;97538.67;127072;1095;62639;-72
2021/08/10 05:04:18;;;;;;;10.43;8.27;;;;;;;17.53;81.79;97542.72;127063;1095;62629;-80
2021/08/10 05:06:45;;;;;;;12.93;9.33;;;;;;;17.57;81.53;97548.89;126969;1095;62674;-70
2021/08/10 05:09:12;;;;;;;11.43;8.43;;;;;;;17.60;81.41;97547.17;126945;1095;62684;-69
2021/08/10 05:11:39;;;;;;;11.10;8.33;;;;;;;17.66;81.66;97551.59;126987;1093;62748;-78
2021/08/10 05:14:06;;;;;;;16.00;9.30;;;;;;;17.71;81.84;97553.73;127079;1095;62617;-75
2021/08/10 05:16:33;;;;;;;11.45;9.65;;;;;;;17.78;81.64;97553.34;127161;1093;62616;-68
2021/08/10 05:19:16;;;;;;;14.43;9.20;;;;;;;17.84;81.34;97547.05;127012;1095;62651;-85
2021/08/10 05:22:03;;;;;;;15.50;8.13;;;;;;;17.89;81.03;97551.95;127044;1095;62722;-75
2021/08/10 05:24:30;;;;;;;13.30;9.20;;;;;;;17.95;80.77;97550.00;126962;1094;62737;-86
2021/08/10 05:26:56;;;;;;;12.23;8.77;;;;;;;18.00;81.08;97557.73;127025;1095;62622;-84
2021/08/10 05:29:24;;;;;;;13.93;9.00;;;;;;;18.09;80.81;97555.56;127013;1093;62572;-84
2021/08/10 05:31:50;;;;;;;12.87;9.00;;;;;;;18.15;80.37;97552.86;127010;1095;62636;-74
2021/08/10 05:34:17;;;;;;;10.97;7.63;;;;;;;18.21;80.13;97548.09;127053;1095;62592;-85
2021/08/10 05:37:05;;;;;;;13.27;8.60;;;;;;;18.27;80.03;97543.33;127021;1093;62712;-69
2021/08/10 05:39:32;;;;;;;12.83;8.97;;;;;;;18.32;80.06;97542.65;127048;1095;62649;-79
2021/08/10 05:41:59;;;;;;;16.37;9.53;;;;;;;18.38;79.79;97537.88;127110;1095;62582;-77
2021/08/10 05:44:26;;;;;;;11.90;8.83;;;;;;;18.47;79.70;97541.79;127007;1093;63054;-78
2021/08/10 05:46:54;;;;;;;12.73;9.00;;;;;;;18.53;79.31;97537.81;126911;1095;62537;-68
2021/08/10 05:49:22;;;;;;;14.03;9.20;;;;;;;18.61;79.72;97538.14;127095;1095;62572;-77
2021/08/10 05:52:09;;;;;;;11.60;8.67;;;;;;;18.69;79.41;97539.30;127050;1095;62630;-84
2021/08/10 05:55:15;;;;;;;14.80;8.87;;;;;;;18.81;79.42;97540.18;126947;1095;62611;-72
2021/08/10 05:58:07;;;;;;;14.23;8.23;;;;;;;18.97;79.26;97543.17;126960;1095;62612;-75
2021/08/10 06:00:34;;;;;;;14.10;8.30;;;;;;;19.06;78.98;97545.06;126946;1095;62667;-68
2021/08/10 06:03:01;;;;;;;11.37;7.67;;;;;;;19.15;78.48;97544.11;127036;1093;62993;-70
2021/08/10 06:05:28;;;;;;;13.70;8.13;;;;;;;19.24;78.27;97549.58;126960;1093;62610;-75
2021/08/10 06:07:55;;;;;;;12.60;8.55;;;;;;;19.30;77.91;97542.73;127099;1095;62544;-72
2021/08/10 06:10:22;;;;;;;10.50;7.63;;;;;;;19.39;77.16;97544.61;127169;1093;62678;-81
2021/08/10 06:12:49;;;;;;;12.07;8.07;;;;;;;19.45;76.93;97548.23;126993;1093;62669;-71
2021/08/10 06:15:16;;;;;;;11.50;8.33;;;;;;;19.54;76.94;97545.26;127023;1095;62556;-72
2021/08/10 06:17:43;;;;;;;11.23;7.80;;;;;;;19.63;76.65;97546.36;127023;1095;62613;-84
2021/08/10 06:20:10;;;;;;;10.93;7.73;;;;;;;19.71;76.71;97547.44;127103;1093;62620;-70
2021/08/10 06:22:37;;;;;;;18.50;7.10;;;;;;;19.79;76.10;97546.48;126843;1095;62603;-78
2021/08/10 06:25:04;;;;;;;13.50;7.90;;;;;;;19.85;75.93;97547.29;127007;1095;62663;-74
2021/08/10 06:27:43;;;;;;;15.33;8.13;;;;;;;19.93;76.18;97544.80;126934;1093;62629;-71
2021/08/10 06:30:30;;;;;;;12.20;7.77;;;;;;;20.02;76.08;97544.59;127056;1095;63063;-72
2021/08/10 06:32:57;;;;;;;14.30;7.73;;;;;;;20.15;75.77;97552.60;127034;1093;62627;-83
2021/08/10 06:35:24;;;;;;;12.57;7.70;;;;;;;20.25;75.47;97544.72;126950;1095;62593;-83
2021/08/10 06:37:51;;;;;;;10.87;7.27;;;;;;;20.37;75.14;97554.77;127048;1095;62610;-77
2021/08/10 06:40:18;;;;;;;12.60;7.27;;;;;;;20.46;74.91;97557.38;127038;1095;62750;-83
2021/08/10 06:42:45;;;;;;;13.75;7.65;;;;;;;20.53;74.65;97554.11;127017;1095;62593;-86
2021/08/10 06:45:12;;;;;;;16.70;8.20;;;;;;;20.60;74.49;97558.47;127133;1094;62607;-81
2021/08/10 06:47:52;;;;;;;13.00;7.63;;;;;;;20.67;74.92;97555.96;127036;1095;62651;-83
2021/08/10 06:50:19;;;;;;;10.87;7.67;;;;;;;20.81;74.74;97557.02;127007;1095;62554;-82
2021/08/10 06:52:47;;;;;;;12.00;7.53;;;;;;;20.90;74.62;97553.22;126996;1095;62703;-83
2021/08/10 06:55:14;;;;;;;13.63;7.13;;;;;;;20.98;74.29;97551.44;127008;1093;62639;-73
2021/08/10 06:57:42;;;;;;;16.07;8.40;;;;;;;21.07;74.07;97543.54;127139;1095;63003;-72
2021/08/10 07:00:09;;;;;;;11.63;7.23;;;;;;;21.17;73.29;97548.92;127056;1095;62611;-83
2021/08/10 07:03:16;;;;;;;14.03;8.03;;;;;;;21.26;73.56;97540.27;126926;1095;62712;-75
2021/08/10 07:06:43;;;;;;;10.30;7.50;;;;;;;21.43;72.85;97546.69;127080;1095;62619;-85
2021/08/10 07:09:10;;;;;;;13.97;7.53;;;;;;;21.59;73.08;97545.94;127038;1093;62610;-76
2021/08/10 07:11:41;;;;;;;12.73;7.70;;;;;;;21.73;72.99;97543.38;127554;1094;62535;-73
2021/08/10 07:14:11;;;;;;;11.43;7.53;;;;;;;21.85;72.70;97540.02;127043;1095;62620;-84
2021/08/10 07:16:42;;;;;;;12.10;7.00;;;;;;;21.99;72.34;97538.97;126978;1095;62655;-84
2021/08/10 07:19:09;;;;;;;10.03;7.53;;;;;;;22.11;72.40;97533.36;127014;1095;62735;-70
2021/08/10 07:21:56;;;;;;;14.60;7.30;;;;;;;22.22;72.26;97538.95;126993;1095;62677;-84
2021/08/10 07:24:23;;;;;;;11.30;7.20;;;;;;;22.35;71.70;97539.18;127093;1095;62641;-70
2021/08/10 07:26:52;;;;;;;10.57;7.80;;;;;;;22.48;72.13;97533.76;127146;1095;62610;-77
2021/08/10 07:29:19;;;;;;;10.13;7.53;;;;;;;22.61;72.03;97536.00;126991;1095;62844;-73
2021/08/10 07:31:46;;;;;;;12.40;7.83;;;;;;;22.73;72.20;97539.55;127062;1095;62767;-75
2021/08/10 07:34:13;;;;;;;13.30;7.43;;;;;;;22.83;72.05;97546.47;127005;1093;62634;-71
2021/08/10 07:37:00;;;;;;;11.40;7.53;;;;;;;22.92;71.69;97543.33;126982;1095;62623;-72
2021/08/10 07:39:47;;;;;;;10.83;7.67;;;;;;;23.06;71.39;97530.93;126919;1095;62658;-82
2021/08/10 07:42:14;;;;;;;10.97;8.10;;;;;;;23.20;71.61;97529.05;127002;1095;62641;-89
2021/08/10 07:44:41;;;;;;;10.13;7.20;;;;;;;23.31;70.90;97523.31;127047;1093;62724;-84
2021/08/10 07:47:08;;;;;;;10.23;7.30;;;;;;;23.41;70.99;97521.70;126937;1095;62611;-68
2021/08/10 07:49:35;;;;;;;8.77;6.87;;;;;;;23.51;68.42;97528.55;126969;1095;62602;-74
2021/08/10 07:52:03;;;;;;;10.83;7.23;;;;;;;23.62;68.55;97524.91;126984;1095;62562;-70
2021/08/10 07:55:09;;;;;;;11.90;6.87;;;;;;;23.72;68.73;97523.28;127013;1093;62578;-71
2021/08/10 07:57:40;;;;;;;8.83;6.10;;;;;;;23.85;68.35;97511.33;126962;1095;62708;-71
2021/08/10 08:00:08;;;;;;;8.87;7.13;;;;;;;23.93;67.78;97515.13;126989;1095;62606;-79
2021/08/10 08:02:35;;;;;;;8.87;6.70;;;;;;;24.03;67.66;97512.70;127067;1095;62610;-74
2021/08/10 08:05:02;;;;;;;10.20;6.40;;;;;;;24.08;66.24;97512.66;127160;1095;62559;-71
2021/08/10 08:07:30;;;;;;;10.37;6.70;;;;;;;24.13;66.70;97505.41;127094;1095;62630;-78
2021/08/10 08:10:34;;;;;;;10.00;6.03;;;;;;;24.21;66.46;97511.98;127098;1095;62575;-73
2021/08/10 08:13:24;;;;;;;8.63;6.30;;;;;;;24.30;66.23;97508.84;127039;1093;62559;-71
2021/08/10 08:16:10;;;;;;;11.63;7.20;;;;;;;24.40;66.36;97501.50;127050;1095;62626;-68
2021/08/10 08:18:37;;;;;;;8.07;6.03;;;;;;;24.48;65.23;97506.58;126785;1095;62596;-69
2021/08/10 08:21:04;;;;;;;9.97;6.37;;;;;;;24.56;64.48;97505.44;126933;1095;62594;-68
2021/08/10 08:23:31;;;;;;;10.70;6.70;;;;;;;24.64;65.16;97500.72;126879;1095;62728;-69
2021/08/10 08:25:58;;;;;;;9.73;6.37;;;;;;;24.72;63.90;97498.03;126916;1093;62626;-68
2021/08/10 08:28:31;;;;;;;8.13;6.27;;;;;;;24.80;63.43;97493.30;126943;1095;62613;-68
2021/08/10 08:30:59;;;;;;;9.80;6.23;;;;;;;24.90;63.19;97500.09;126733;1095;62657;-73
2021/08/10 08:33:26;;;;;;;8.50;6.30;;;;;;;25.02;63.96;97494.31;127124;1095;62614;-74
2021/08/10 08:35:53;;;;;;;11.67;6.60;;;;;;;25.08;64.46;97494.98;127101;1095;62614;-71
2021/08/10 08:38:20;;;;;;;11.73;6.87;;;;;;;25.14;63.79;97495.69;126969;1095;62642;-75
2021/08/10 08:40:48;;;;;;;7.23;5.77;;;;;;;25.20;63.36;97497.13;127041;1095;62607;-79
2021/08/10 08:43:19;;;;;;;7.60;5.80;;;;;;;25.28;63.66;97498.02;126989;1093;62630;-83
2021/08/10 08:46:05;;;;;;;8.90;4.90;;;;;;;25.38;62.36;97498.39;127030;1095;62643;-73
2021/08/10 08:48:54;;;;;;;8.83;5.13;;;;;;;25.51;61.30;97498.45;127100;1095;62716;-74
2021/08/10 08:51:24;;;;;;;8.10;5.30;;;;;;;25.65;60.49;97495.63;127067;1095;62984;-68
2021/08/10 08:53:53;;;;;;;9.97;5.17;;;;;;;25.77;58.79;97485.66;126708;1095;62565;-75
2021/08/10 08:56:23;;;;;;;6.95;5.00;;;;;;;25.85;58.78;97492.20;126967;1095;62619;-70
2021/08/10 08:58:55;;;;;;;6.90;4.80;;;;;;;25.87;57.33;97489.61;126962;1095;62620;-68
2021/08/10 09:01:22;;;;;;;10.10;4.43;;;;;;;25.94;56.91;97491.80;126940;1095;62619;-72
2021/08/10 09:03:52;;;;;;;7.10;4.30;;;;;;;26.01;54.46;97490.38;127051;1095;62610;-75
2021/08/10 09:06:21;;;;;;;8.13;4.50;;;;;;;26.08;55.18;97489.74;126821;1095;62557;-74
2021/08/10 09:08:53;;;;;;;8.57;4.83;;;;;;;26.14;55.12;97485.48;127044;1095;62613;-72
2021/08/10 09:11:22;;;;;;;8.10;4.20;;;;;;;26.25;55.97;97478.07;127025;1095;62612;-74
2021/08/10 09:14:03;;;;;;;7.33;4.40;;;;;;;26.33;54.15;97476.85;127023;1093;62759;-83
2021/08/10 09:16:30;;;;;;;6.93;4.63;;;;;;;26.41;54.95;97474.92;127076;1095;62623;-74
2021/08/10 09:19:16;;;;;;;8.83;4.30;;;;;;;26.48;51.28;97485.61;126905;1095;62556;-71
2021/08/10 09:22:12;;;;;;;8.53;4.47;;;;;;;26.59;52.55;97481.78;126974;1095;63012;-72
2021/08/10 09:25:22;;;;;;;5.47;4.03;;;;;;;26.71;51.60;97477.38;126986;1095;62590;-72
2021/08/10 09:27:49;;;;;;;6.97;4.60;;;;;;;26.87;52.96;97469.80;127095;1095;62786;-69
2021/08/10 09:30:26;;;;;;;10.77;6.43;;;;;;;26.97;52.73;97478.64;126603;1093;62713;-69
2021/08/10 09:32:59;;;;;;;9.00;4.40;;;;;;;27.11;51.81;97477.31;126906;1093;62710;-66
2021/08/10 09:35:34;;;;;;;6.87;4.33;;;;;;;27.23;51.01;97481.40;127017;1095;62651;-69
2021/08/10 09:38:02;;;;;;;9.60;6.60;;;;;;;27.38;50.89;97477.95;126977;1093;62588;-67
2021/08/10 09:40:37;;;;;;;15.60;10.30;;;;;;;27.53;50.58;97477.34;127107;1095;62587;-68
2021/08/10 09:43:24;;;;;;;8.77;4.30;;;;;;;27.72;49.13;97472.22;127008;1095;62645;-76
2021/08/10 09:46:27;;;;;;;5.93;4.37;;;;;;;27.92;45.78;97474.27;127000;1095;62607;-67
2021/08/10 09:48:57;;;;;;;10.57;5.00;;;;;;;28.31;44.13;97486.70;127140;1095;62595;-73
2021/08/10 09:51:28;;;;;;;7.33;4.40;;;;;;;29.34;41.92;97481.05;126870;1093;62679;-73
2021/08/10 09:54:02;;;;;;;7.10;3.90;;;;;;;30.82;38.68;97477.72;127059;1095;62777;-69
2021/08/10 09:56:57;;;;;;;6.67;3.23;;;;;;;32.27;37.06;97468.16;126883;1095;62648;-70
2021/08/10 09:59:43;;;;;;;10.00;7.90;;;;;;;33.26;36.47;97472.71;126931;1095;62662;-78
2021/08/10 10:02:21;;;;;;;6.97;3.60;;;;;;;33.92;34.44;97478.62;127157;1095;62556;-68
2021/08/10 10:04:56;;;;;;;13.17;9.97;;;;;;;35.23;32.74;97478.42;126976;1095;62620;-69
2021/08/10 10:07:23;;;;;;;5.77;3.43;;;;;;;36.51;30.21;97472.25;126877;1095;62761;-71
2021/08/10 10:09:51;;;;;;;6.55;4.10;;;;;;;37.17;29.76;97475.94;126936;1095;62680;-69
2021/08/10 10:12:19;;;;;;;5.95;3.80;;;;;;;36.79;28.58;97468.38;127002;1095;62617;-71
2021/08/10 10:14:47;;;;;;;5.90;4.23;;;;;;;35.92;30.56;97468.22;126726;1095;62926;-73
2021/08/10 10:17:14;;;;;;;6.80;4.40;;;;;;;35.54;32.34;97461.22;127087;1095;62604;-71
2021/08/10 10:19:43;;;;;;;5.40;3.30;;;;;;;35.65;31.61;97465.58;126984;1095;62706;-74
2021/08/10 10:22:15;;;;;;;5.55;3.40;;;;;;;36.88;30.60;97476.22;127049;1095;62632;-73
2021/08/10 10:24:53;;;;;;;6.93;5.50;;;;;;;38.32;28.66;97463.59;127139;1095;62607;-68
2021/08/10 10:27:20;;;;;;;10.10;5.43;;;;;;;39.75;27.55;97466.72;126980;1095;62607;-70
2021/08/10 10:29:49;;;;;;;5.37;3.47;;;;;;;40.66;25.75;97457.03;126909;1095;62547;-69
2021/08/10 10:32:20;;;;;;;6.65;3.08;;;;;;;41.63;23.68;97452.30;127076;1095;63012;-70
2021/08/10 10:34:48;;;;;;;4.25;3.00;;;;;;;42.63;23.12;97450.97;126889;1095;62696;-71
2021/08/10 10:37:26;;;;;;;7.67;3.97;;;;;;;43.34;20.87;97456.83;126958;1095;62674;-70
2021/08/10 10:40:01;;;;;;;5.60;3.00;;;;;;;43.42;20.96;97444.72;126999;1093;62639;-75
2021/08/10 10:42:28;;;;;;;5.60;3.50;;;;;;;43.90;19.85;97451.69;127094;1095;62565;-71
2021/08/10 10:44:55;;;;;;;5.85;3.20;;;;;;;44.33;20.13;97450.33;126988;1095;62607;-85
2021/08/10 10:47:23;;;;;;;6.35;3.63;;;;;;;44.49;19.47;97456.01;126987;1094;62705;-71
2021/08/10 10:49:56;;;;;;;4.43;3.10;;;;;;;44.77;19.81;97447.48;127038;1095;62677;-75
2021/08/10 10:52:27;;;;;;;26.23;23.57;;;;;;;45.23;19.20;97445.33;127098;1095;62595;-70
2021/08/10 10:54:55;;;;;;;25.10;22.50;;;;;;;45.71;18.77;97454.91;126965;1095;62610;-74
2021/08/10 10:57:34;;;;;;;4.53;2.98;;;;;;;45.66;18.07;97453.30;127082;1093;62612;-70
2021/08/10 11:00:07;;;;;;;8.53;2.88;;;;;;;45.16;17.87;97444.41;127174;1093;62698;-71
2021/08/10 11:02:38;;;;;;;3.90;3.03;;;;;;;45.39;18.79;97442.20;127197;1094;62604;-69
2021/08/10 11:05:08;;;;;;;5.10;3.60;;;;;;;44.29;19.20;97439.26;127302;1095;62616;-70
2021/08/10 11:07:46;;;;;;;4.37;3.00;;;;;;;43.39;19.19;97452.64;127196;1093;62607;-69
2021/08/10 11:10:32;;;;;;;4.73;3.00;;;;;;;43.58;19.45;97441.69;127023;1095;62680;-68
2021/08/10 11:12:58;;;;;;;6.98;3.20;;;;;;;44.10;19.04;97445.88;126962;1095;61421;-73
2021/08/10 11:15:44;;;;;;;6.78;4.50;;;;;;;43.73;18.88;97431.34;126922;1093;62588;-68
2021/08/10 11:18:11;;;;;;;4.70;3.00;;;;;;;43.16;19.08;97444.42;126924;1095;62607;-68
2021/08/10 11:20:56;;;;;;;7.20;2.90;;;;;;;42.62;19.59;97440.73;127052;1095;62614;-68
2021/08/10 11:23:26;;;;;;;6.50;3.15;;;;;;;42.98;19.13;97438.61;127051;1095;62613;-72
2021/08/10 11:25:59;;;;;;;5.70;3.00;;;;;;;43.49;18.97;97440.64;127199;1095;62665;-70
2021/08/10 11:28:27;;;;;;;5.33;2.75;;;;;;;44.06;18.61;97444.95;127157;1095;62607;-71
2021/08/10 11:30:56;;;;;;;4.73;2.93;;;;;;;44.62;18.89;97433.83;127276;1093;62604;-76
2021/08/10 11:33:32;;;;;;;4.80;3.03;;;;;;;44.76;18.21;97437.23;127168;1095;62551;-70
2021/08/10 11:36:11;;;;;;;4.00;2.23;;;;;;;44.18;17.21;97446.18;127022;1095;63073;-72
2021/08/10 11:38:45;;;;;;;3.65;2.50;;;;;;;44.29;17.22;97441.43;127165;1095;62705;-71
2021/08/10 11:41:16;;;;;;;5.95;2.98;;;;;;;44.39;17.04;97441.80;127002;1095;62612;-69
2021/08/10 11:43:51;;;;;;;4.50;3.00;;;;;;;44.74;17.96;97434.25;127066;1093;62619;-66